Fox Lake, Wisconsin
Current Conditions -  °F | °C
As of 12:35 PM on Sunday 23 Nov 2014 (Local Time) from KUNU Reporting Station
Drizzle Drizzle  
Wind Chill: 41°   Ceiling: 400
Heat Index: 47°   Visibility: 7mi
Dew Point: 46°   Wind: 14mph
Humidity: 96%   Direction: 160°SSE
Pressure: 29.55"   Gusts: NA
Location:  43.57°N, 88.91°W
Report Text: KUNU 231835Z AUTO 16012KT 7SM DZ OVC004 08/08 A2955 RMK AO2 P0001 T00820076
Loading
Personal Weather Stations






























Interactive Weather Map New forecast layout! Learn more

10-Day Weather Forecast

Advertisements
Track Severe Weather on mobile